Terminal Aerodrome Forecast
Issued by NWS Brownsville, TX

Home | Current Version | Previous Version | Text Only | Print | Product List | Glossary On
Versions: 1 2 3 4 5 6 7 8 9 10 11 12 13 14 15 16 17
000
FTUS44 KBRO 050336 AAA
TAFHRL
TAF AMD
KHRL 050336Z 0504/0524 12005KT P6SM FEW028 BKN250
     FM050600 14011KT 4SM BR OVC007
      TEMPO 0506/0509 2SM BR OVC004
     FM050900 01015KT 4SM BR OVC004
     FM051200 35020G30KT 5SM -SHRA BR OVC007
     FM051800 34015G25KT 6SM -DZ BR OVC007=

USA.gov is the U.S. government's official web portal to all federal, state and local government web resources and services.